Walnut Ridge, AR (72476)

1:46 PM CDT on May 30, 2015 (GMT -0500)
Walnut Ridge Regional | | Change Station
CLOSE
Current Station
Airport
Location: Walnut Ridge,
Elevation: 272 ft
Nearby Weather Stations
Active Advisory: Flood Warning Active Notice: Public Information Statement

Elev 272 ft 36.12 °N, 90.93 °W | Updated 11 minutes ago

Partly Cloudy
Partly Cloudy
75 °F
Feels Like 75 °F
N
12
Wind Variable Wind from West

Today
High -- | Low -- °F
--% Chance of Precip.
Yesterday
High -- | Low -- °F
Precip. -- in
5:49 AM 8:14 PM
Waxing Gibbous, 91% visible
Pressure 29.97 in
Visibility 10.0 miles
Clouds Few 3500 ft
Dew Point 64 °F
Humidity 69%
Rainfall 0.70 in
Snow Depth Not available.
UV 11 out of 12
Pollen 1.00 out of 12
Air Quality Not available.
Flu Activity No Activity
METAR KARG 301835Z AUTO 27010KT 10SM FEW035 24/18 A2997 RMK AO1

More Conditions Fewer Conditions

Pressure 29.97 in
Visibility 10.0 miles
Clouds Few 3500 ft
Dew Point 64 °F
Humidity 69%
Rainfall 0.70 in
Snow Depth Not available.
UV 11 out of 12
Pollen 1.00 out of 12
Air Quality Not available.
Flu Activity No Activity
METAR KARG 301835Z AUTO 27010KT 10SM FEW035 24/18 A2997 RMK AO1

More Conditions Fewer Conditions

10-Day Weather Forecast

Almanac

Astronomy

May. 30, 2015 Rise Set
Actual Time
Civil Twilight
Nautical Twilight
Astronomical Twilight
Moon
Length of Visible Light
Length of Day
Tomorrow will be .
, % of the Moon is Illuminated

Today's Extremes

State Highs State Lows

Community

WunderPhotos

Upload Photos

1,825,610 photos uploaded!

WunderBlogs® & News

Nearby

Air Quality

  Air Quality AQ Index Pollutant
Not available.

Snow Depth

Station Depth Elevation

Earthquake Activity

City Distance Mag. Time & Date
Minimum magnitude displayed is 2.5.

Coastal Water Temperatures

Place Temperature

Stations

Nearby Weather Stations

Station Location Temp. Windchill Dew Point Humidity Wind Precip. Elev Updated Type
                   
Flood Warning
Statement as of 8:13 AM CDT on May 30, 2015

* at 7:00 am Saturday the stage was 13.8 feet.
* Flood stage is 14.0 feet.
* Forecast... rise above flood stage by late this afternoon and
continue to rise to near 15.5 feet by early Monday morning.The
river is expected to fall below flood stage around Tuesday afternoon.
* Impact... at 14.0 feet... minor flooding begins. Farm ground along
East Bank begins to flood.



             Fld observed forecast 7 am
location stg stg day time sun Mon Tue Wed Thu

Black River
Black Rock 14 13.8 Sat 07 am 14.9 15.5 14.5 13.5 13.6




Lat... Lon 3570 9140 3591 9125 3612 9115 3610 9101
3588 9110 3564 9128